createdAt,value
2024-04-18T00:01:59.565Z,58.75
2024-04-18T00:07:03.068Z,58.91
2024-04-18T00:12:06.810Z,59.14
2024-04-18T00:17:09.385Z,58.87
2024-04-18T00:22:11.286Z,59.04
2024-04-18T00:27:13.433Z,58.79
2024-04-18T00:32:18.326Z,58.56
2024-04-18T00:37:20.300Z,59.23
2024-04-18T00:42:24.755Z,59.30
2024-04-18T00:47:26.902Z,58.96
2024-04-18T00:52:29.264Z,59.01
2024-04-18T00:57:33.599Z,59.14
2024-04-18T01:02:36.829Z,59.39
2024-04-18T01:07:39.143Z,59.22
2024-04-18T01:12:41.276Z,59.13
2024-04-18T01:17:46.703Z,59.22
2024-04-18T01:22:48.970Z,59.12
2024-04-18T01:27:50.959Z,59.54
2024-04-18T01:32:53.214Z,59.31
2024-04-18T01:37:57.840Z,59.61
2024-04-18T01:43:02.666Z,59.41
2024-04-18T01:48:05.150Z,59.50
2024-04-18T01:53:08.552Z,59.43
2024-04-18T01:58:10.618Z,58.92
2024-04-18T02:03:12.851Z,59.18
2024-04-18T02:08:15.171Z,59.05
2024-04-18T02:13:17.426Z,58.89
2024-04-18T02:18:31.185Z,58.68
2024-04-18T02:23:38.005Z,58.76
2024-04-18T02:28:40.264Z,59.26
2024-04-18T02:33:44.483Z,58.66
2024-04-18T02:38:46.825Z,58.95
2024-04-18T02:43:56.725Z,59.16
2024-04-18T02:48:58.777Z,59.07
2024-04-18T02:54:00.867Z,59.24
2024-04-18T02:59:02.799Z,59.07
2024-04-18T03:04:05.901Z,59.28
2024-04-18T03:09:08.492Z,59.95
2024-04-18T03:14:10.708Z,59.42
2024-04-18T03:19:16.188Z,59.53
2024-04-18T03:24:23.768Z,59.41
2024-04-18T03:29:29.547Z,59.38
2024-04-18T03:34:32.087Z,59.62
2024-04-18T03:39:36.542Z,59.64
2024-04-18T03:44:38.588Z,59.43
2024-04-18T03:49:42.816Z,59.22
2024-04-18T03:55:00.337Z,59.68
2024-04-18T04:00:04.900Z,59.88
2024-04-18T04:05:06.976Z,59.07
2024-04-18T04:10:13.738Z,59.41
2024-04-18T04:15:19.142Z,59.21
2024-04-18T04:20:50.801Z,59.14
2024-04-18T04:25:53.116Z,58.85
2024-04-18T04:30:55.303Z,58.79
2024-04-18T04:35:57.347Z,59.43
2024-04-18T04:40:59.363Z,59.17
2024-04-18T04:46:08.655Z,59.26
2024-04-18T04:51:12.889Z,58.83
2024-04-18T04:56:14.828Z,58.97
2024-04-18T05:01:20.493Z,59.12
2024-04-18T05:06:23.073Z,58.93
2024-04-18T05:11:26.300Z,58.88
2024-04-18T05:16:30.810Z,59.11
2024-04-18T05:21:33.197Z,59.53
2024-04-18T05:26:39.717Z,59.38
2024-04-18T05:31:43.207Z,59.59
2024-04-18T05:36:47.120Z,59.82
2024-04-18T05:41:49.282Z,59.75
2024-04-18T05:46:52.390Z,59.84
2024-04-18T05:51:54.659Z,59.65
2024-04-18T05:56:58.955Z,59.66
2024-04-18T06:02:01.031Z,59.69
2024-04-18T06:07:06.242Z,59.25
2024-04-18T06:12:10.846Z,59.23
2024-04-18T06:17:13.027Z,59.42
2024-04-18T06:22:25.450Z,59.16
2024-04-18T06:27:34.385Z,59.14
2024-04-18T06:32:36.684Z,59.45
2024-04-18T06:37:41.106Z,59.47
2024-04-18T06:42:43.327Z,59.50
2024-04-18T06:47:45.619Z,59.59
2024-04-18T06:52:47.782Z,59.67
2024-04-18T06:57:50.012Z,59.69
2024-04-18T07:02:52.226Z,59.58
2024-04-18T07:07:55.289Z,59.30
2024-04-18T07:12:59.907Z,59.38
2024-04-18T07:18:02.335Z,59.55
2024-04-18T07:23:17.554Z,59.62
2024-04-18T07:28:21.405Z,59.71
2024-04-18T07:33:27.223Z,59.88
2024-04-18T07:38:31.951Z,59.44
2024-04-18T07:43:38.634Z,59.58
2024-04-18T07:48:41.876Z,59.22
2024-04-18T07:53:43.987Z,58.81
2024-04-18T07:58:48.239Z,58.81
2024-04-18T08:04:02.546Z,58.77
2024-04-18T08:09:15.310Z,58.37
2024-04-18T08:14:22.354Z,58.39
2024-04-18T08:19:27.401Z,57.88
2024-04-18T08:24:34.295Z,57.86
2024-04-18T08:29:38.604Z,57.50
2024-04-18T08:34:43.231Z,57.23
2024-04-18T08:39:46.540Z,57.95
2024-04-18T08:44:56.567Z,57.29
2024-04-18T08:50:01.108Z,57.33
2024-04-18T08:55:03.301Z,57.17
2024-04-18T09:00:06.698Z,57.35
2024-04-18T09:05:09.319Z,57.88
2024-04-18T09:10:12.008Z,58.18
2024-04-18T09:15:17.354Z,58.75
2024-04-18T09:20:19.572Z,59.02
2024-04-18T09:25:30.000Z,59.29
2024-04-18T09:30:34.723Z,59.39
2024-04-18T09:35:37.516Z,59.35
2024-04-18T09:40:44.479Z,58.81
2024-04-18T09:45:56.739Z,58.38
2024-04-18T09:50:59.340Z,57.93
2024-04-18T09:56:02.161Z,58.01
2024-04-18T10:01:04.479Z,58.05
2024-04-18T10:06:10.671Z,58.73
2024-04-18T10:11:14.863Z,58.96
2024-04-18T10:16:22.463Z,58.79
2024-04-18T10:21:33.042Z,58.34
2024-04-18T10:27:08.199Z,58.78
2024-04-18T10:32:13.811Z,58.38
2024-04-18T10:37:26.328Z,58.69
2024-04-18T10:42:28.619Z,59.15
2024-04-18T10:47:32.651Z,59.42
2024-04-18T10:52:34.733Z,59.88
2024-04-18T10:57:40.328Z,60.74
2024-04-18T11:02:44.779Z,61.42
2024-04-18T11:07:51.203Z,61.09
2024-04-18T11:12:54.444Z,61.35
2024-04-18T11:17:57.158Z,62.21
2024-04-18T11:23:08.763Z,63.60
2024-04-18T11:28:15.646Z,64.71
2024-04-18T11:33:23.997Z,64.86
2024-04-18T11:38:26.370Z,65.17
2024-04-18T11:43:29.147Z,64.83
2024-04-18T11:48:31.271Z,64.81
2024-04-18T11:53:35.122Z,65.36
2024-04-18T11:58:37.230Z,65.42
2024-04-18T12:03:46.081Z,65.96
2024-04-18T12:08:52.229Z,66.19
2024-04-18T12:13:56.180Z,66.50
2024-04-18T12:18:58.280Z,66.10
2024-04-18T12:24:00.278Z,66.01
2024-04-18T12:29:04.731Z,65.69
2024-04-18T12:34:12.190Z,65.24
2024-04-18T12:39:18.968Z,64.75
2024-04-18T12:44:21.154Z,64.37
2024-04-18T12:49:23.332Z,62.81
2024-04-18T12:54:25.555Z,62.15
2024-04-18T12:59:27.694Z,60.70
2024-04-18T13:04:32.774Z,58.62
2024-04-18T13:09:37.106Z,56.86
2024-04-18T13:14:41.497Z,57.32
2024-04-18T13:19:43.679Z,57.12
2024-04-18T13:24:49.132Z,56.71
2024-04-18T13:29:56.429Z,55.42
2024-04-18T13:34:59.258Z,54.34
2024-04-18T13:40:01.309Z,53.84
2024-04-18T13:45:03.650Z,52.30
2024-04-18T13:50:06.037Z,50.49
2024-04-18T13:55:10.433Z,51.04
2024-04-18T14:00:12.842Z,50.74
2024-04-18T14:05:21.804Z,51.58
2024-04-18T14:10:25.968Z,52.19
2024-04-18T14:15:38.230Z,53.33
2024-04-18T14:20:50.913Z,54.22
2024-04-18T14:25:53.540Z,55.58
2024-04-18T14:30:56.626Z,55.86
2024-04-18T14:36:01.724Z,55.10
2024-04-18T14:41:11.343Z,53.83
2024-04-18T14:46:19.774Z,52.01
2024-04-18T14:51:21.816Z,50.28
2024-04-18T14:56:23.803Z,49.44
2024-04-18T15:01:26.048Z,48.02
2024-04-18T15:06:29.807Z,46.75
2024-04-18T15:11:33.014Z,47.50
2024-04-18T15:16:38.031Z,48.15
2024-04-18T15:21:40.258Z,47.66
2024-04-18T15:26:45.110Z,47.69
2024-04-18T15:31:47.122Z,47.68
2024-04-18T15:36:49.645Z,48.97
2024-04-18T15:41:52.423Z,49.90
2024-04-18T15:46:56.723Z,51.06
2024-04-18T15:52:01.498Z,52.22
2024-04-18T15:57:05.390Z,51.83
2024-04-18T16:02:07.758Z,52.07
2024-04-18T16:07:12.254Z,51.97
2024-04-18T16:12:16.618Z,51.94
2024-04-18T16:17:22.126Z,50.95
2024-04-18T16:22:26.340Z,51.92
2024-04-18T16:27:34.219Z,52.23
2024-04-18T16:32:38.617Z,52.51
2024-04-18T16:37:42.204Z,52.45
2024-04-18T16:42:45.308Z,52.74
2024-04-18T16:47:47.464Z,53.18
2024-04-18T16:52:51.110Z,53.02
2024-04-18T16:57:53.281Z,53.02
2024-04-18T17:02:55.581Z,52.40
2024-04-18T17:07:57.827Z,52.20
2024-04-18T17:12:59.984Z,52.73
2024-04-18T17:18:02.050Z,52.85
2024-04-18T17:23:05.950Z,53.52
2024-04-18T17:28:10.037Z,54.06
2024-04-18T17:33:12.122Z,54.29
2024-04-18T17:38:16.779Z,54.59
2024-04-18T17:43:18.739Z,54.99
2024-04-18T17:48:21.053Z,55.26
2024-04-18T17:53:23.195Z,55.75
2024-04-18T17:58:25.352Z,55.07
2024-04-18T18:03:27.444Z,55.01
2024-04-18T18:08:29.568Z,55.24
2024-04-18T18:13:33.929Z,55.41
2024-04-18T18:18:39.949Z,55.38
2024-04-18T18:23:46.173Z,55.84
2024-04-18T18:28:51.080Z,56.53
2024-04-18T18:33:53.126Z,56.54
2024-04-18T18:38:55.826Z,56.76
2024-04-18T18:43:59.172Z,57.55
2024-04-18T18:49:01.389Z,57.96
2024-04-18T18:54:04.049Z,58.63
2024-04-18T18:59:07.766Z,58.53
2024-04-18T19:04:10.008Z,58.67
2024-04-18T19:09:12.029Z,58.69
2024-04-18T19:14:16.405Z,58.64
2024-04-18T19:19:18.373Z,59.33
2024-04-18T19:24:20.474Z,59.32
2024-04-18T19:29:35.492Z,59.73
2024-04-18T19:34:43.017Z,59.97
2024-04-18T19:39:45.344Z,60.06
2024-04-18T19:44:49.652Z,59.99
2024-04-18T19:49:51.767Z,60.29
2024-04-18T19:54:58.396Z,60.17
2024-04-18T20:00:00.459Z,59.89
2024-04-18T20:05:09.356Z,59.96
2024-04-18T20:10:11.434Z,59.86
2024-04-18T20:15:13.551Z,59.61
2024-04-18T20:20:15.877Z,59.47
2024-04-18T20:25:20.799Z,59.54
2024-04-18T20:30:22.946Z,59.07
2024-04-18T20:35:27.459Z,59.38
2024-04-18T20:40:29.955Z,59.24
2024-04-18T20:45:32.102Z,59.47
2024-04-18T20:50:36.373Z,59.97
2024-04-18T20:55:38.324Z,59.84
2024-04-18T21:00:47.469Z,60.00
2024-04-18T21:05:49.509Z,60.16
2024-04-18T21:10:51.737Z,60.46
2024-04-18T21:16:00.929Z,60.12
2024-04-18T21:21:03.485Z,60.38
2024-04-18T21:26:08.751Z,60.51
2024-04-18T21:31:10.871Z,60.78
2024-04-18T21:36:17.560Z,61.31
2024-04-18T21:41:20.021Z,61.32
2024-04-18T21:46:22.028Z,61.13
2024-04-18T21:51:24.221Z,61.42
2024-04-18T21:56:26.333Z,61.41
2024-04-18T22:01:28.477Z,61.53
2024-04-18T22:06:30.601Z,61.80
2024-04-18T22:11:33.018Z,61.58
2024-04-18T22:16:35.291Z,61.94
2024-04-18T22:21:38.683Z,62.10
2024-04-18T22:26:40.917Z,62.30
2024-04-18T22:31:43.597Z,62.62
2024-04-18T22:36:45.742Z,62.34
2024-04-18T22:41:48.621Z,62.56
2024-04-18T22:46:52.783Z,62.54
2024-04-18T22:52:00.061Z,62.64
2024-04-18T22:57:07.729Z,62.50
2024-04-18T23:02:09.948Z,63.05
2024-04-18T23:07:14.569Z,62.81
2024-04-18T23:12:16.709Z,62.82
2024-04-18T23:17:18.870Z,63.10
2024-04-18T23:22:23.559Z,63.07
2024-04-18T23:27:32.741Z,63.14
2024-04-18T23:32:35.278Z,63.05
2024-04-18T23:37:37.506Z,63.25
2024-04-18T23:42:42.370Z,62.94
2024-04-18T23:47:46.770Z,63.00
2024-04-18T23:52:49.327Z,62.98
2024-04-18T23:57:55.988Z,63.11
